createdAt,value
2023-01-22T00:01:09.028Z,14.99
2023-01-22T00:03:36.534Z,14.47
2023-01-22T00:06:03.172Z,14.49
2023-01-22T00:08:29.814Z,14.21
2023-01-22T00:10:56.491Z,14.00
2023-01-22T00:13:23.911Z,13.86
2023-01-22T00:15:50.599Z,14.22
2023-01-22T00:18:17.421Z,14.46
2023-01-22T00:20:50.963Z,13.69
2023-01-22T00:23:17.654Z,13.99
2023-01-22T00:25:44.509Z,13.95
2023-01-22T00:28:11.616Z,14.39
2023-01-22T00:30:38.347Z,14.30
2023-01-22T00:33:05.183Z,14.01
2023-01-22T00:35:32.153Z,13.79
2023-01-22T00:37:58.818Z,13.88
2023-01-22T00:40:25.441Z,13.94
2023-01-22T00:42:52.047Z,13.88
2023-01-22T00:45:18.681Z,13.78
2023-01-22T00:47:45.331Z,13.51
2023-01-22T00:50:12.035Z,13.73
2023-01-22T00:52:38.765Z,13.92
2023-01-22T00:55:06.002Z,13.19
2023-01-22T00:57:32.812Z,13.67
2023-01-22T00:59:59.452Z,13.67
2023-01-22T01:02:26.112Z,12.93
2023-01-22T01:04:52.819Z,14.72
2023-01-22T01:07:19.629Z,13.65
2023-01-22T01:09:46.329Z,13.44
2023-01-22T01:12:12.987Z,13.93
2023-01-22T01:14:39.602Z,13.24
2023-01-22T01:17:06.207Z,13.23
2023-01-22T01:19:32.869Z,13.00
2023-01-22T01:21:59.535Z,12.63
2023-01-22T01:24:26.236Z,12.50
2023-01-22T01:26:52.832Z,13.56
2023-01-22T01:29:19.763Z,13.33
2023-01-22T01:31:46.462Z,13.32
2023-01-22T01:34:13.390Z,13.34
2023-01-22T01:36:48.747Z,13.19
2023-01-22T01:39:16.229Z,13.00
2023-01-22T01:41:42.931Z,13.15
2023-01-22T01:44:15.225Z,12.96
2023-01-22T01:47:02.030Z,12.51
2023-01-22T01:49:31.717Z,12.73
2023-01-22T01:52:01.066Z,12.60
2023-01-22T01:54:27.876Z,12.95
2023-01-22T01:57:11.293Z,12.80
2023-01-22T01:59:37.928Z,12.73
2023-01-22T02:02:05.516Z,12.95
2023-01-22T02:04:32.195Z,12.24
2023-01-22T02:06:58.838Z,12.66
2023-01-22T02:09:25.506Z,12.89
2023-01-22T02:11:52.176Z,12.09
2023-01-22T02:14:21.677Z,12.13
2023-01-22T02:16:48.345Z,12.30
2023-01-22T02:19:14.991Z,12.52
2023-01-22T02:21:42.895Z,13.10
2023-01-22T02:24:11.739Z,12.13
2023-01-22T02:26:38.567Z,12.58
2023-01-22T02:29:05.864Z,12.14
2023-01-22T02:31:32.504Z,11.97
2023-01-22T02:33:59.145Z,12.79
2023-01-22T02:36:25.896Z,12.25
2023-01-22T02:38:52.545Z,11.90
2023-01-22T02:41:19.303Z,12.49
2023-01-22T02:43:46.004Z,12.91
2023-01-22T02:46:12.672Z,12.28
2023-01-22T02:48:39.327Z,12.33
2023-01-22T02:51:06.159Z,12.06
2023-01-22T02:53:32.835Z,12.37
2023-01-22T02:55:59.616Z,12.03
2023-01-22T02:58:26.222Z,12.00
2023-01-22T03:00:52.846Z,11.62
2023-01-22T03:03:19.496Z,11.75
2023-01-22T03:05:50.177Z,11.21
2023-01-22T03:08:17.008Z,11.53
2023-01-22T03:10:43.862Z,11.90
2023-01-22T03:13:10.479Z,11.84
2023-01-22T03:15:39.872Z,10.98
2023-01-22T03:18:06.528Z,11.07
2023-01-22T03:20:36.409Z,11.06
2023-01-22T03:23:03.042Z,10.85
2023-01-22T03:25:29.688Z,10.50
2023-01-22T03:27:56.353Z,10.85
2023-01-22T03:30:23.000Z,10.59
2023-01-22T03:32:49.619Z,10.59
2023-01-22T03:35:16.380Z,10.75
2023-01-22T03:37:43.032Z,10.11
2023-01-22T03:40:10.426Z,10.27
2023-01-22T03:42:37.090Z,10.26
2023-01-22T03:45:03.861Z,9.81
2023-01-22T03:47:30.654Z,9.94
2023-01-22T03:49:57.378Z,10.00
2023-01-22T03:52:23.992Z,10.40
2023-01-22T03:54:50.653Z,9.98
2023-01-22T03:57:17.303Z,10.55
2023-01-22T03:59:43.954Z,12.98
2023-01-22T04:02:10.610Z,11.22
2023-01-22T04:04:37.425Z,10.84
2023-01-22T04:07:04.040Z,11.06
2023-01-22T04:09:30.666Z,10.68
2023-01-22T04:11:57.275Z,11.11
2023-01-22T04:14:24.204Z,10.60
2023-01-22T04:16:50.852Z,10.61
2023-01-22T04:19:17.460Z,11.06
2023-01-22T04:21:44.138Z,10.88
2023-01-22T04:24:10.972Z,11.42
2023-01-22T04:26:37.644Z,11.25
2023-01-22T04:29:04.272Z,11.14
2023-01-22T04:31:30.967Z,11.36
2023-01-22T04:33:57.605Z,11.72
2023-01-22T04:36:24.251Z,11.61
2023-01-22T04:38:50.857Z,11.60
2023-01-22T04:41:17.569Z,11.30
2023-01-22T04:43:44.185Z,12.37
2023-01-22T04:46:10.942Z,12.36
2023-01-22T04:48:37.602Z,12.42
2023-01-22T04:51:04.281Z,12.21
2023-01-22T04:53:30.923Z,12.49
2023-01-22T04:55:57.554Z,12.13
2023-01-22T04:58:24.175Z,11.85
2023-01-22T05:00:50.773Z,12.56
2023-01-22T05:03:17.397Z,12.13
2023-01-22T05:05:44.048Z,12.70
2023-01-22T05:08:10.707Z,12.88
2023-01-22T05:10:37.328Z,12.54
2023-01-22T05:13:04.999Z,12.96
2023-01-22T05:15:31.742Z,12.70
2023-01-22T05:17:58.372Z,12.96
2023-01-22T05:20:25.004Z,13.30
2023-01-22T05:22:51.639Z,12.24
2023-01-22T05:25:18.973Z,13.02
2023-01-22T05:27:45.627Z,13.06
2023-01-22T05:30:12.470Z,12.79
2023-01-22T05:32:39.202Z,12.93
2023-01-22T05:35:06.191Z,12.60
2023-01-22T05:37:32.816Z,12.66
2023-01-22T05:39:59.447Z,12.79
2023-01-22T05:42:26.124Z,12.78
2023-01-22T05:44:53.041Z,12.74
2023-01-22T05:47:19.708Z,12.26
2023-01-22T05:49:46.341Z,12.39
2023-01-22T05:52:12.971Z,12.94
2023-01-22T05:54:39.628Z,12.86
2023-01-22T05:57:06.445Z,12.96
2023-01-22T05:59:33.174Z,12.94
2023-01-22T06:01:59.950Z,13.65
2023-01-22T06:04:26.665Z,13.39
2023-01-22T06:06:53.322Z,13.15
2023-01-22T06:09:19.982Z,13.09
2023-01-22T06:11:46.732Z,13.27
2023-01-22T06:14:13.413Z,13.62
2023-01-22T06:16:40.122Z,13.50
2023-01-22T06:19:06.766Z,12.99
2023-01-22T06:21:33.439Z,13.24
2023-01-22T06:24:00.121Z,13.39
2023-01-22T06:26:26.732Z,13.18
2023-01-22T06:28:53.378Z,13.10
2023-01-22T06:31:20.082Z,12.99
2023-01-22T06:33:46.770Z,13.06
2023-01-22T06:36:13.490Z,13.67
2023-01-22T06:38:40.169Z,13.75
2023-01-22T06:41:06.824Z,13.31
2023-01-22T06:43:33.423Z,12.77
2023-01-22T06:46:00.109Z,12.73
2023-01-22T06:48:26.955Z,12.75
2023-01-22T06:50:57.381Z,12.93
2023-01-22T06:53:24.047Z,12.33
2023-01-22T06:55:50.871Z,13.11
2023-01-22T06:58:17.603Z,12.39
2023-01-22T07:00:44.265Z,12.23
2023-01-22T07:03:11.317Z,12.86
2023-01-22T07:05:37.962Z,12.69
2023-01-22T07:08:05.087Z,12.38
2023-01-22T07:10:31.715Z,12.69
2023-01-22T07:12:58.465Z,12.66
2023-01-22T07:15:25.788Z,12.76
2023-01-22T07:17:52.926Z,12.80
2023-01-22T07:20:22.496Z,13.17
2023-01-22T07:22:49.111Z,13.11
2023-01-22T07:25:15.783Z,13.47
2023-01-22T07:27:42.488Z,13.84
2023-01-22T07:30:09.700Z,13.44
2023-01-22T07:32:36.463Z,13.71
2023-01-22T07:35:03.263Z,13.80
2023-01-22T07:37:29.955Z,13.40
2023-01-22T07:39:56.667Z,13.60
2023-01-22T07:42:23.333Z,13.16
2023-01-22T07:44:49.911Z,13.30
2023-01-22T07:47:16.685Z,13.28
2023-01-22T07:49:43.357Z,13.39
2023-01-22T07:52:10.035Z,13.16
2023-01-22T07:54:36.786Z,13.71
2023-01-22T07:57:03.693Z,13.61
2023-01-22T07:59:30.329Z,13.91
2023-01-22T08:01:57.034Z,13.58
2023-01-22T08:04:24.390Z,13.79
2023-01-22T08:06:51.377Z,14.11
2023-01-22T08:09:18.065Z,13.60
2023-01-22T08:11:44.728Z,14.49
2023-01-22T08:14:11.484Z,13.60
2023-01-22T08:16:38.180Z,13.94
2023-01-22T08:19:04.879Z,13.66
2023-01-22T08:21:32.620Z,13.62
2023-01-22T08:24:00.678Z,13.59
2023-01-22T08:26:27.307Z,13.47
2023-01-22T08:28:54.269Z,13.21
2023-01-22T08:31:27.948Z,13.30
2023-01-22T08:33:55.241Z,13.52
2023-01-22T08:36:21.899Z,12.81
2023-01-22T08:38:48.500Z,13.24
2023-01-22T08:41:15.113Z,13.16
2023-01-22T08:43:41.986Z,13.54
2023-01-22T08:46:08.675Z,13.90
2023-01-22T08:48:35.382Z,14.57
2023-01-22T08:51:02.119Z,13.55
2023-01-22T08:53:28.770Z,14.26
2023-01-22T08:55:55.504Z,13.48
2023-01-22T08:58:22.381Z,13.58
2023-01-22T09:00:49.109Z,14.21
2023-01-22T09:03:15.790Z,14.30
2023-01-22T09:05:42.455Z,15.18
2023-01-22T09:08:09.076Z,14.85
2023-01-22T09:10:35.690Z,13.83
2023-01-22T09:13:02.393Z,14.45
2023-01-22T09:15:29.180Z,14.81
2023-01-22T09:17:55.875Z,14.72
2023-01-22T09:20:22.586Z,14.55
2023-01-22T09:22:49.288Z,13.75
2023-01-22T09:25:16.041Z,14.04
2023-01-22T09:27:42.703Z,14.42
2023-01-22T09:30:09.943Z,14.25
2023-01-22T09:32:37.849Z,14.26
2023-01-22T09:35:04.693Z,14.05
2023-01-22T09:37:31.317Z,13.87
2023-01-22T09:39:57.967Z,13.83
2023-01-22T09:42:28.016Z,14.03
2023-01-22T09:44:56.709Z,14.17
2023-01-22T09:47:44.908Z,13.34
2023-01-22T09:50:16.976Z,13.38
2023-01-22T09:52:43.758Z,13.77
2023-01-22T09:55:14.404Z,13.67
2023-01-22T09:57:46.822Z,13.86
2023-01-22T10:00:21.763Z,13.41
2023-01-22T10:02:55.411Z,13.46
2023-01-22T10:05:48.339Z,13.36
2023-01-22T10:08:20.370Z,12.73
2023-01-22T10:10:47.419Z,12.77
2023-01-22T10:13:21.612Z,12.73
2023-01-22T10:15:50.322Z,12.88
2023-01-22T10:18:46.134Z,12.13
2023-01-22T10:21:19.130Z,12.73
2023-01-22T10:23:45.758Z,12.75
2023-01-22T10:26:19.959Z,12.84
2023-01-22T10:28:51.588Z,13.15
2023-01-22T10:31:24.046Z,12.89
2023-01-22T10:34:20.209Z,12.83
2023-01-22T10:36:51.411Z,12.33
2023-01-22T10:39:18.381Z,11.92
2023-01-22T10:41:45.897Z,12.63
2023-01-22T10:44:23.391Z,12.95
2023-01-22T10:46:50.665Z,12.26
2023-01-22T10:49:24.823Z,11.91
2023-01-22T10:51:59.167Z,11.89
2023-01-22T10:54:32.815Z,11.33
2023-01-22T10:57:06.224Z,11.66
2023-01-22T10:59:32.925Z,12.30
2023-01-22T11:02:10.739Z,12.31
2023-01-22T11:04:37.388Z,12.73
2023-01-22T11:07:09.100Z,12.02
2023-01-22T11:09:44.382Z,11.81
2023-01-22T11:12:32.617Z,11.91
2023-01-22T11:15:20.581Z,11.46
2023-01-22T11:17:50.332Z,11.52
2023-01-22T11:20:49.961Z,11.11
2023-01-22T11:23:36.787Z,11.33
2023-01-22T11:26:26.543Z,11.88
2023-01-22T11:29:22.087Z,10.84
2023-01-22T11:32:05.639Z,11.69
2023-01-22T11:34:48.233Z,10.82
2023-01-22T11:37:17.158Z,11.09
2023-01-22T11:40:02.515Z,10.84
2023-01-22T11:43:08.303Z,11.23
2023-01-22T11:45:50.820Z,11.72
2023-01-22T11:48:40.788Z,11.53
2023-01-22T11:51:17.449Z,10.68
2023-01-22T11:54:02.840Z,10.61
2023-01-22T11:56:38.200Z,10.45
2023-01-22T11:59:09.307Z,10.96
2023-01-22T12:01:55.394Z,10.77
2023-01-22T12:04:50.885Z,10.73
2023-01-22T12:07:39.024Z,10.82
2023-01-22T12:10:27.329Z,10.89
2023-01-22T12:12:53.867Z,10.05
2023-01-22T12:15:39.994Z,10.28
2023-01-22T12:18:25.309Z,9.79
2023-01-22T12:21:40.645Z,9.47
2023-01-22T12:24:21.618Z,9.69
2023-01-22T12:27:11.648Z,9.58
2023-01-22T12:29:45.344Z,8.61
2023-01-22T12:32:12.547Z,8.90
2023-01-22T12:34:53.265Z,8.95
2023-01-22T12:37:25.512Z,9.25
2023-01-22T12:39:58.045Z,9.24
2023-01-22T12:42:51.153Z,9.06
2023-01-22T12:45:45.527Z,9.05
2023-01-22T12:48:21.159Z,9.04
2023-01-22T12:50:49.489Z,8.94
2023-01-22T12:53:30.015Z,9.39
2023-01-22T12:56:03.722Z,9.28
2023-01-22T12:58:32.683Z,8.94
2023-01-22T13:01:11.625Z,9.54
2023-01-22T13:03:39.344Z,9.62
2023-01-22T13:06:20.192Z,9.34
2023-01-22T13:08:46.927Z,9.87
2023-01-22T13:11:26.139Z,9.14
2023-01-22T13:13:56.732Z,8.71
2023-01-22T13:16:34.241Z,8.75
2023-01-22T13:19:00.964Z,9.03
2023-01-22T13:21:32.605Z,9.17
2023-01-22T13:24:04.410Z,8.50
2023-01-22T13:26:33.350Z,9.11
2023-01-22T13:29:27.441Z,9.24
2023-01-22T13:32:01.859Z,8.84
2023-01-22T13:34:28.614Z,9.68
2023-01-22T13:36:55.371Z,9.16
2023-01-22T13:39:28.377Z,9.70
2023-01-22T13:41:56.721Z,9.39
2023-01-22T13:44:25.808Z,9.28
2023-01-22T13:46:52.513Z,9.62
2023-01-22T13:49:23.691Z,9.34
2023-01-22T13:51:50.527Z,9.41
2023-01-22T13:54:26.911Z,9.56
2023-01-22T13:56:53.565Z,9.53
2023-01-22T13:59:22.933Z,9.65
2023-01-22T14:01:49.927Z,9.35
2023-01-22T14:04:44.800Z,9.10
2023-01-22T14:07:11.551Z,9.33
2023-01-22T14:09:38.704Z,9.27
2023-01-22T14:12:25.326Z,9.64
2023-01-22T14:14:52.224Z,9.50
2023-01-22T14:17:32.496Z,9.45
2023-01-22T14:19:59.170Z,9.27
2023-01-22T14:22:25.789Z,9.12
2023-01-22T14:24:52.512Z,9.40
2023-01-22T14:27:23.216Z,8.89
2023-01-22T14:29:50.294Z,9.06
2023-01-22T14:32:17.006Z,8.80
2023-01-22T14:34:43.711Z,9.10
2023-01-22T14:37:14.022Z,9.08
2023-01-22T14:39:41.209Z,8.67
2023-01-22T14:42:07.808Z,9.24
2023-01-22T14:44:35.059Z,8.90
2023-01-22T14:47:01.724Z,9.18
2023-01-22T14:49:28.785Z,8.81
2023-01-22T14:51:55.474Z,8.82
2023-01-22T14:54:22.108Z,8.34
2023-01-22T14:56:48.767Z,8.36
2023-01-22T14:59:15.388Z,8.36
2023-01-22T15:01:42.041Z,8.36
2023-01-22T15:04:08.630Z,8.18
2023-01-22T15:06:35.247Z,8.18
2023-01-22T15:09:01.949Z,8.02
2023-01-22T15:11:28.537Z,8.35
2023-01-22T15:13:55.194Z,7.87
2023-01-22T15:16:21.886Z,8.19
2023-01-22T15:18:48.628Z,7.82
2023-01-22T15:21:15.362Z,7.91
2023-01-22T15:23:42.085Z,8.14
2023-01-22T15:26:19.814Z,7.88
2023-01-22T15:28:46.448Z,7.99
2023-01-22T15:31:13.141Z,8.37
2023-01-22T15:33:39.820Z,8.09
2023-01-22T15:36:06.973Z,8.43
2023-01-22T15:38:33.643Z,8.49
2023-01-22T15:41:17.699Z,8.90
2023-01-22T15:43:44.328Z,9.10
2023-01-22T15:46:10.990Z,9.02
2023-01-22T15:48:38.218Z,9.23
2023-01-22T15:51:11.453Z,9.10
2023-01-22T15:53:38.223Z,9.55
2023-01-22T15:56:05.081Z,9.60
2023-01-22T15:58:32.387Z,9.05
2023-01-22T16:00:59.562Z,9.24
2023-01-22T16:03:26.216Z,9.08
2023-01-22T16:05:52.888Z,9.67
2023-01-22T16:08:21.032Z,10.28
2023-01-22T16:10:47.797Z,10.09
2023-01-22T16:13:14.410Z,10.90
2023-01-22T16:15:41.088Z,10.72
2023-01-22T16:18:07.812Z,11.31
2023-01-22T16:20:36.848Z,11.37
2023-01-22T16:23:03.500Z,11.96
2023-01-22T16:25:30.290Z,11.83
2023-01-22T16:27:57.022Z,11.91
2023-01-22T16:30:23.654Z,11.50
2023-01-22T16:32:50.308Z,11.25
2023-01-22T16:35:17.029Z,11.20
2023-01-22T16:37:44.472Z,11.29
2023-01-22T16:40:11.947Z,11.60
2023-01-22T16:42:38.655Z,11.12
2023-01-22T16:45:05.634Z,11.50
2023-01-22T16:47:32.254Z,11.09
2023-01-22T16:49:58.871Z,11.13
2023-01-22T16:52:25.502Z,11.39
2023-01-22T16:54:52.144Z,11.32
2023-01-22T16:57:18.893Z,11.24
2023-01-22T16:59:45.522Z,11.50
2023-01-22T17:02:14.030Z,11.84
2023-01-22T17:04:40.719Z,11.85
2023-01-22T17:07:07.385Z,11.95
2023-01-22T17:09:34.152Z,12.02
2023-01-22T17:12:02.050Z,11.78
2023-01-22T17:14:30.010Z,11.54
2023-01-22T17:16:57.200Z,11.85
2023-01-22T17:19:23.848Z,12.02
2023-01-22T17:21:51.529Z,12.32
2023-01-22T17:24:18.179Z,11.77
2023-01-22T17:26:46.525Z,12.28
2023-01-22T17:29:17.137Z,12.63
2023-01-22T17:31:52.263Z,12.20
2023-01-22T17:34:19.012Z,12.25
2023-01-22T17:36:45.691Z,11.65
2023-01-22T17:39:14.256Z,12.26
2023-01-22T17:41:40.951Z,11.56
2023-01-22T17:44:07.598Z,11.60
2023-01-22T17:46:34.437Z,11.89
2023-01-22T17:49:01.240Z,11.95
2023-01-22T17:51:28.610Z,12.24
2023-01-22T17:53:56.059Z,12.27
2023-01-22T17:56:26.876Z,11.82
2023-01-22T17:58:58.936Z,11.74
2023-01-22T18:01:28.254Z,12.21
2023-01-22T18:04:01.789Z,11.72
2023-01-22T18:06:29.785Z,12.72
2023-01-22T18:08:59.873Z,12.52
2023-01-22T18:11:27.363Z,12.57
2023-01-22T18:14:01.732Z,12.41
2023-01-22T18:16:29.927Z,12.66
2023-01-22T18:18:57.193Z,12.38
2023-01-22T18:21:27.718Z,11.95
2023-01-22T18:23:54.960Z,12.16
2023-01-22T18:26:22.577Z,12.31
2023-01-22T18:28:56.657Z,11.98
2023-01-22T18:31:24.324Z,11.49
2023-01-22T18:33:53.582Z,11.96
2023-01-22T18:36:25.602Z,11.46
2023-01-22T18:38:53.611Z,10.96
2023-01-22T18:41:22.034Z,11.42
2023-01-22T18:43:49.179Z,11.30
2023-01-22T18:46:16.336Z,11.83
2023-01-22T18:48:43.051Z,11.51
2023-01-22T18:51:10.556Z,11.62
2023-01-22T18:53:37.421Z,11.70
2023-01-22T18:56:05.402Z,11.62
2023-01-22T18:58:32.199Z,11.58
2023-01-22T19:01:08.993Z,11.41
2023-01-22T19:03:35.828Z,11.58
2023-01-22T19:06:06.518Z,11.54
2023-01-22T19:08:33.426Z,11.03
2023-01-22T19:11:02.393Z,10.70
2023-01-22T19:13:29.323Z,10.86
2023-01-22T19:15:56.038Z,10.90
2023-01-22T19:18:22.804Z,10.69
2023-01-22T19:20:49.568Z,10.51
2023-01-22T19:23:20.776Z,10.75
2023-01-22T19:25:50.488Z,11.27
2023-01-22T19:28:17.168Z,11.22
2023-01-22T19:30:43.924Z,11.66
2023-01-22T19:33:10.606Z,11.74
2023-01-22T19:35:37.239Z,11.84
2023-01-22T19:38:03.924Z,11.25
2023-01-22T19:40:30.592Z,11.41
2023-01-22T19:42:57.196Z,11.17
2023-01-22T19:45:23.939Z,11.58
2023-01-22T19:47:50.581Z,11.48
2023-01-22T19:50:17.271Z,10.67
2023-01-22T19:52:43.910Z,11.34
2023-01-22T19:55:10.607Z,11.55
2023-01-22T19:57:37.279Z,11.22
2023-01-22T20:00:04.381Z,11.50
2023-01-22T20:02:31.066Z,11.65
2023-01-22T20:04:57.727Z,11.70
2023-01-22T20:07:24.343Z,11.91
2023-01-22T20:09:51.119Z,11.73
2023-01-22T20:12:17.811Z,11.85
2023-01-22T20:14:44.499Z,12.26
2023-01-22T20:17:11.119Z,11.76
2023-01-22T20:19:37.793Z,12.66
2023-01-22T20:22:04.482Z,12.74
2023-01-22T20:24:31.144Z,11.93
2023-01-22T20:26:57.829Z,12.09
2023-01-22T20:29:24.797Z,12.13
2023-01-22T20:31:52.348Z,11.75
2023-01-22T20:34:19.084Z,12.28
2023-01-22T20:36:45.774Z,11.81
2023-01-22T20:39:12.566Z,12.01
2023-01-22T20:41:39.226Z,11.84
2023-01-22T20:44:06.173Z,11.69
2023-01-22T20:46:32.814Z,11.98
2023-01-22T20:48:59.500Z,12.11
2023-01-22T20:51:27.735Z,11.71
2023-01-22T20:53:54.753Z,11.73
2023-01-22T20:56:23.490Z,12.03
2023-01-22T20:58:55.015Z,12.01
2023-01-22T21:01:21.624Z,12.21
2023-01-22T21:03:48.221Z,12.49
2023-01-22T21:06:16.420Z,11.84
2023-01-22T21:08:43.249Z,11.79
2023-01-22T21:11:12.054Z,11.51
2023-01-22T21:13:38.778Z,11.54
2023-01-22T21:16:09.487Z,11.95
2023-01-22T21:18:37.121Z,11.94
2023-01-22T21:21:04.753Z,11.73
2023-01-22T21:23:31.406Z,11.32
2023-01-22T21:26:03.576Z,11.45
2023-01-22T21:28:30.245Z,11.47
2023-01-22T21:30:56.905Z,11.28
2023-01-22T21:33:23.519Z,11.19
2023-01-22T21:35:50.210Z,10.72
2023-01-22T21:38:16.800Z,11.37
2023-01-22T21:40:43.636Z,11.25
2023-01-22T21:43:12.996Z,11.11
2023-01-22T21:45:41.387Z,11.29
2023-01-22T21:48:08.068Z,11.06
2023-01-22T21:50:38.229Z,10.75
2023-01-22T21:53:04.850Z,10.97
2023-01-22T21:55:31.507Z,11.27
2023-01-22T21:57:58.230Z,11.38
2023-01-22T22:00:24.834Z,11.46
2023-01-22T22:02:51.547Z,11.81
2023-01-22T22:05:18.544Z,11.85
2023-01-22T22:07:45.175Z,12.72
2023-01-22T22:10:11.870Z,12.22
2023-01-22T22:12:39.274Z,12.33
2023-01-22T22:15:06.526Z,12.63
2023-01-22T22:17:33.156Z,12.65
2023-01-22T22:19:59.791Z,12.45
2023-01-22T22:22:26.523Z,13.08
2023-01-22T22:24:53.210Z,13.75
2023-01-22T22:27:19.812Z,13.47
2023-01-22T22:29:46.488Z,13.67
2023-01-22T22:32:13.188Z,13.58
2023-01-22T22:34:40.053Z,13.23
2023-01-22T22:37:06.748Z,13.66
2023-01-22T22:39:33.401Z,14.54
2023-01-22T22:42:00.006Z,14.09
2023-01-22T22:44:26.696Z,14.02
2023-01-22T22:46:53.355Z,13.81
2023-01-22T22:49:21.093Z,14.30
2023-01-22T22:51:47.731Z,14.49
2023-01-22T22:54:16.012Z,14.95
2023-01-22T22:56:43.689Z,15.63
2023-01-22T22:59:10.677Z,15.04
2023-01-22T23:01:37.283Z,14.41
2023-01-22T23:04:07.125Z,15.23
2023-01-22T23:06:34.698Z,15.02
2023-01-22T23:09:01.404Z,15.78
2023-01-22T23:11:29.833Z,15.23
2023-01-22T23:13:56.547Z,15.13
2023-01-22T23:16:23.193Z,16.09
2023-01-22T23:18:50.897Z,15.75
2023-01-22T23:21:22.238Z,15.64
2023-01-22T23:23:49.469Z,15.15
2023-01-22T23:26:23.707Z,15.03
2023-01-22T23:28:50.381Z,15.63
2023-01-22T23:31:17.459Z,16.07
2023-01-22T23:33:44.226Z,15.79
2023-01-22T23:36:14.402Z,15.56
2023-01-22T23:38:41.064Z,15.82
2023-01-22T23:41:09.526Z,15.96
2023-01-22T23:43:36.136Z,16.53
2023-01-22T23:46:11.960Z,16.62
2023-01-22T23:48:38.675Z,16.13
2023-01-22T23:51:07.175Z,15.97
2023-01-22T23:53:40.262Z,16.46
2023-01-22T23:56:07.611Z,17.02
2023-01-22T23:58:35.344Z,17.09
